createdAt,value
2018-01-10T00:01:17.904Z,11.23
2018-01-10T00:03:46.693Z,12.67
2018-01-10T00:06:15.356Z,12.23
2018-01-10T00:08:43.293Z,13.10
2018-01-10T00:11:11.380Z,12.50
2018-01-10T00:13:39.286Z,11.63
2018-01-10T00:16:08.009Z,11.53
2018-01-10T00:18:36.187Z,11.23
2018-01-10T00:21:04.123Z,11.97
2018-01-10T00:23:32.785Z,12.40
2018-01-10T00:26:00.943Z,12.37
2018-01-10T00:28:28.892Z,12.60
2018-01-10T00:30:56.846Z,12.27
2018-01-10T00:33:24.891Z,12.93
2018-01-10T00:35:53.561Z,12.10
2018-01-10T00:38:21.488Z,12.40
2018-01-10T00:40:49.537Z,12.40
2018-01-10T00:43:17.466Z,14.00
2018-01-10T00:45:45.532Z,12.50
2018-01-10T00:48:13.591Z,13.10
2018-01-10T00:50:41.516Z,13.00
2018-01-10T00:53:10.176Z,12.43
2018-01-10T00:55:38.256Z,12.80
2018-01-10T00:58:06.992Z,11.87
2018-01-10T01:00:34.934Z,12.87
2018-01-10T01:03:03.757Z,11.70
2018-01-10T01:05:31.690Z,11.23
2018-01-10T01:08:00.378Z,12.50
2018-01-10T01:10:29.181Z,12.20
2018-01-10T01:12:57.120Z,12.80
2018-01-10T01:15:25.041Z,13.13
2018-01-10T01:17:53.108Z,11.37
2018-01-10T01:20:21.194Z,12.13
2018-01-10T01:22:49.127Z,12.30
2018-01-10T01:25:17.985Z,12.03
2018-01-10T01:27:45.929Z,13.77
2018-01-10T01:30:13.868Z,15.20
2018-01-10T01:32:41.934Z,12.87
2018-01-10T01:35:09.865Z,13.10
2018-01-10T01:37:37.798Z,14.00
2018-01-10T01:40:05.849Z,13.43
2018-01-10T01:42:33.782Z,12.30
2018-01-10T01:45:01.747Z,13.83
2018-01-10T01:47:30.783Z,12.80
2018-01-10T01:49:58.712Z,14.40
2018-01-10T01:52:26.646Z,13.00
2018-01-10T01:54:54.745Z,12.97
2018-01-10T01:57:22.685Z,12.10
2018-01-10T01:59:50.654Z,13.70
2018-01-10T02:02:18.742Z,13.17
2018-01-10T02:04:46.699Z,12.87
2018-01-10T02:07:18.252Z,12.80
2018-01-10T02:09:46.717Z,11.60
2018-01-10T02:12:14.696Z,12.47
2018-01-10T02:14:42.633Z,11.67
2018-01-10T02:17:11.442Z,13.87
2018-01-10T02:19:40.197Z,14.57
2018-01-10T02:22:08.271Z,13.60
2018-01-10T02:24:36.354Z,12.63
2018-01-10T02:27:04.384Z,14.03
2018-01-10T02:29:32.335Z,13.00
2018-01-10T02:32:00.472Z,14.27
2018-01-10T02:34:29.159Z,12.80
2018-01-10T02:36:57.192Z,14.50
2018-01-10T02:39:25.265Z,12.87
2018-01-10T02:41:53.200Z,15.27
2018-01-10T02:44:21.150Z,15.07
2018-01-10T02:46:49.330Z,17.53
2018-01-10T02:49:17.341Z,16.07
2018-01-10T02:51:45.276Z,15.13
2018-01-10T02:54:14.107Z,16.33
2018-01-10T02:56:42.109Z,15.77
2018-01-10T02:59:10.101Z,14.20
2018-01-10T03:01:38.894Z,15.43
2018-01-10T03:04:07.703Z,14.97
2018-01-10T03:06:35.747Z,16.00
2018-01-10T03:09:04.803Z,14.87
2018-01-10T03:11:32.714Z,16.50
2018-01-10T03:14:01.378Z,13.30
2018-01-10T03:16:29.570Z,14.80
2018-01-10T03:18:57.498Z,14.13
2018-01-10T03:21:25.436Z,14.83
2018-01-10T03:23:53.633Z,19.70
2018-01-10T03:26:21.635Z,16.10
2018-01-10T03:28:49.562Z,17.20
2018-01-10T03:31:17.599Z,17.17
2018-01-10T03:33:45.539Z,15.23
2018-01-10T03:36:13.490Z,16.03
2018-01-10T03:38:41.520Z,15.70
2018-01-10T03:41:10.198Z,16.40
2018-01-10T03:43:38.115Z,16.17
2018-01-10T03:46:06.166Z,18.20
2018-01-10T03:48:34.111Z,15.93
2018-01-10T03:51:02.781Z,15.60
2018-01-10T03:53:30.831Z,16.00
2018-01-10T03:55:58.750Z,15.90
2018-01-10T03:58:27.427Z,14.90
2018-01-10T04:00:56.211Z,15.13
2018-01-10T04:03:24.871Z,14.97
2018-01-10T04:05:52.782Z,15.43
2018-01-10T04:08:21.570Z,14.37
2018-01-10T04:10:50.247Z,14.53
2018-01-10T04:13:18.910Z,14.23
2018-01-10T04:15:46.954Z,15.37
2018-01-10T04:18:14.899Z,15.73
2018-01-10T04:20:42.843Z,15.00
2018-01-10T04:23:11.015Z,14.60
2018-01-10T04:25:39.142Z,15.03
2018-01-10T04:28:07.063Z,16.93
2018-01-10T04:30:35.109Z,16.83
2018-01-10T04:33:03.053Z,17.53
2018-01-10T04:35:30.975Z,17.30
2018-01-10T04:37:59.772Z,12.07
2018-01-10T04:40:28.450Z,14.37
2018-01-10T04:42:56.439Z,14.97
2018-01-10T04:45:25.247Z,13.30
2018-01-10T04:47:53.113Z,12.60
2018-01-10T04:50:20.994Z,13.73
2018-01-10T04:52:49.057Z,13.60
2018-01-10T04:55:16.965Z,14.67
2018-01-10T04:57:44.858Z,14.10
2018-01-10T05:00:12.925Z,14.90
2018-01-10T05:02:40.798Z,15.07
2018-01-10T05:05:08.691Z,16.63
2018-01-10T05:07:37.453Z,18.07
2018-01-10T05:10:05.328Z,19.43
2018-01-10T05:12:33.208Z,18.83
2018-01-10T05:15:01.968Z,22.77
2018-01-10T05:17:29.844Z,22.67
2018-01-10T05:19:57.764Z,22.37
2018-01-10T05:22:25.784Z,23.30
2018-01-10T05:24:53.788Z,23.83
2018-01-10T05:27:22.595Z,24.10
2018-01-10T05:29:50.566Z,24.03
2018-01-10T05:32:18.478Z,24.43
2018-01-10T05:34:46.471Z,22.30
2018-01-10T05:37:15.224Z,21.40
2018-01-10T05:39:43.129Z,21.60
2018-01-10T05:42:11.771Z,23.80
2018-01-10T05:44:39.772Z,20.63
2018-01-10T05:47:07.701Z,24.60
2018-01-10T05:49:35.597Z,23.93
2018-01-10T05:52:03.603Z,21.60
2018-01-10T05:54:32.243Z,21.93
2018-01-10T05:57:00.150Z,21.30
2018-01-10T05:59:28.901Z,17.73
2018-01-10T06:01:56.773Z,11.60
2018-01-10T06:04:24.653Z,8.17
2018-01-10T06:06:52.800Z,8.67
2018-01-10T06:09:20.738Z,7.03
2018-01-10T06:11:48.675Z,6.10
2018-01-10T06:14:16.668Z,7.10
2018-01-10T06:16:45.364Z,5.93
2018-01-10T06:19:13.984Z,4.60
2018-01-10T06:21:41.977Z,5.90
2018-01-10T06:24:09.884Z,6.00
2018-01-10T06:26:38.565Z,6.30
2018-01-10T06:29:07.452Z,6.63
2018-01-10T06:31:36.089Z,6.33
2018-01-10T06:34:03.980Z,5.60
2018-01-10T06:36:32.009Z,5.30
2018-01-10T06:38:59.895Z,5.50
2018-01-10T06:41:27.816Z,5.43
2018-01-10T06:43:55.828Z,5.83
2018-01-10T06:46:23.750Z,5.60
2018-01-10T06:48:51.641Z,5.53
2018-01-10T06:51:20.404Z,6.00
2018-01-10T06:53:48.285Z,5.30
2018-01-10T06:56:17.024Z,5.33
2018-01-10T06:58:45.037Z,5.03
2018-01-10T07:01:12.907Z,5.47
2018-01-10T07:03:40.809Z,5.20
2018-01-10T07:06:08.894Z,4.47
2018-01-10T07:08:36.788Z,4.77
2018-01-10T07:11:04.708Z,5.43
2018-01-10T07:13:33.459Z,4.73
2018-01-10T07:16:01.457Z,5.73
2018-01-10T07:18:30.077Z,5.10
2018-01-10T07:20:58.077Z,5.50
2018-01-10T07:23:25.972Z,5.83
2018-01-10T07:25:53.956Z,6.03
2018-01-10T07:28:22.789Z,5.63
2018-01-10T07:30:50.825Z,5.80
2018-01-10T07:33:19.480Z,5.40
2018-01-10T07:35:47.527Z,4.43
2018-01-10T07:38:15.464Z,5.63
2018-01-10T07:40:43.347Z,4.50
2018-01-10T07:43:11.372Z,4.70
2018-01-10T07:45:39.246Z,5.23
2018-01-10T07:48:07.157Z,4.63
2018-01-10T07:50:35.168Z,4.90
2018-01-10T07:53:03.076Z,4.77
2018-01-10T07:55:31.781Z,4.57
2018-01-10T07:57:59.837Z,4.70
2018-01-10T08:00:28.472Z,5.13
2018-01-10T08:02:56.372Z,4.37
2018-01-10T08:05:24.392Z,5.00
2018-01-10T08:07:52.278Z,5.50
2018-01-10T08:10:20.189Z,4.40
2018-01-10T08:12:48.960Z,4.20
2018-01-10T08:15:16.833Z,4.80
2018-01-10T08:17:44.741Z,4.67
2018-01-10T08:20:12.748Z,4.13
2018-01-10T08:22:40.647Z,6.07
2018-01-10T08:25:08.594Z,5.03
2018-01-10T08:27:36.589Z,5.40
2018-01-10T08:30:05.224Z,4.90
2018-01-10T08:32:33.248Z,4.97
2018-01-10T08:35:02.000Z,4.57
2018-01-10T08:37:29.878Z,5.07
2018-01-10T08:39:57.792Z,5.20
2018-01-10T08:42:26.529Z,5.20
2018-01-10T08:44:54.405Z,5.27
2018-01-10T08:47:22.296Z,5.13
2018-01-10T08:49:50.291Z,5.23
2018-01-10T08:52:18.935Z,5.53
2018-01-10T08:54:46.793Z,5.00
2018-01-10T08:57:14.862Z,5.20
2018-01-10T08:59:42.760Z,4.67
2018-01-10T09:02:11.053Z,5.07
2018-01-10T09:04:39.849Z,5.10
2018-01-10T09:07:08.468Z,5.17
2018-01-10T09:09:36.371Z,4.20
2018-01-10T09:12:04.419Z,5.80
2018-01-10T09:14:32.293Z,5.13
2018-01-10T09:17:00.234Z,4.70
2018-01-10T09:19:28.224Z,5.23
2018-01-10T09:21:56.141Z,4.77
2018-01-10T09:24:24.792Z,5.20
2018-01-10T09:26:52.805Z,4.47
2018-01-10T09:29:21.425Z,4.73
2018-01-10T09:31:49.383Z,4.80
2018-01-10T09:34:17.536Z,5.43
2018-01-10T09:36:46.248Z,4.87
2018-01-10T09:39:14.137Z,4.83
2018-01-10T09:41:42.234Z,5.03
2018-01-10T09:44:10.704Z,4.90
2018-01-10T09:46:38.645Z,5.53
2018-01-10T09:49:06.696Z,4.93
2018-01-10T09:51:35.343Z,4.73
2018-01-10T09:54:03.256Z,4.93
2018-01-10T09:56:32.088Z,5.37
2018-01-10T09:58:59.985Z,5.37
2018-01-10T10:01:27.880Z,5.37
2018-01-10T10:03:56.643Z,5.67
2018-01-10T10:06:24.662Z,5.60
2018-01-10T10:08:52.538Z,5.40
2018-01-10T10:11:20.577Z,5.37
2018-01-10T10:13:49.197Z,5.80
2018-01-10T10:16:17.292Z,5.27
2018-01-10T10:18:45.297Z,5.83
2018-01-10T10:21:13.188Z,5.87
2018-01-10T10:23:41.067Z,7.23
2018-01-10T10:26:09.216Z,6.03
2018-01-10T10:28:37.839Z,6.50
2018-01-10T10:31:05.711Z,5.53
2018-01-10T10:33:33.719Z,6.30
2018-01-10T10:36:01.729Z,5.70
2018-01-10T10:38:30.374Z,5.60
2018-01-10T10:40:58.381Z,6.53
2018-01-10T10:43:26.999Z,5.43
2018-01-10T10:45:54.934Z,5.50
2018-01-10T10:48:23.646Z,5.90
2018-01-10T10:50:51.505Z,5.97
2018-01-10T10:53:19.378Z,5.23
2018-01-10T10:55:47.400Z,5.13
2018-01-10T10:58:15.299Z,6.03
2018-01-10T11:00:43.920Z,5.60
2018-01-10T11:03:11.960Z,5.33
2018-01-10T11:05:40.655Z,5.70
2018-01-10T11:08:08.648Z,5.90
2018-01-10T11:10:36.744Z,5.70
2018-01-10T11:13:04.597Z,5.27
2018-01-10T11:15:32.485Z,6.20
2018-01-10T11:18:00.512Z,5.77
2018-01-10T11:20:28.414Z,6.10
2018-01-10T11:22:56.325Z,5.73
2018-01-10T11:25:25.172Z,5.00
2018-01-10T11:27:53.448Z,5.73
2018-01-10T11:30:21.331Z,6.00
2018-01-10T11:32:49.350Z,6.00
2018-01-10T11:35:17.260Z,5.40
2018-01-10T11:37:45.323Z,5.97
2018-01-10T11:40:13.329Z,6.13
2018-01-10T11:42:41.244Z,4.93
2018-01-10T11:45:09.232Z,5.70
2018-01-10T11:47:37.249Z,6.07
2018-01-10T11:50:05.137Z,6.97
2018-01-10T11:52:33.773Z,5.27
2018-01-10T11:55:01.823Z,5.20
2018-01-10T11:57:29.721Z,5.33
2018-01-10T11:59:57.637Z,5.60
2018-01-10T12:02:25.661Z,5.70
2018-01-10T12:04:53.533Z,5.67
2018-01-10T12:07:21.443Z,5.87
2018-01-10T12:09:50.205Z,5.50
2018-01-10T12:12:18.173Z,5.70
2018-01-10T12:14:46.072Z,5.63
2018-01-10T12:17:14.855Z,5.30
2018-01-10T12:19:43.477Z,5.50
2018-01-10T12:22:11.392Z,5.77
2018-01-10T12:24:39.421Z,4.63
2018-01-10T12:27:07.332Z,5.10
2018-01-10T12:29:35.229Z,4.93
2018-01-10T12:32:04.088Z,5.20
2018-01-10T12:34:31.989Z,4.80
2018-01-10T12:36:59.981Z,5.47
2018-01-10T12:39:28.143Z,4.80
2018-01-10T12:41:56.033Z,4.80
2018-01-10T12:44:23.947Z,4.80
2018-01-10T12:46:52.067Z,5.13
2018-01-10T12:49:19.976Z,4.90
2018-01-10T12:51:47.902Z,5.07
2018-01-10T12:54:15.945Z,4.43
2018-01-10T12:56:44.647Z,5.27
2018-01-10T12:59:12.544Z,5.40
2018-01-10T13:01:40.613Z,5.20
2018-01-10T13:04:08.524Z,5.30
2018-01-10T13:06:36.431Z,5.00
2018-01-10T13:09:04.697Z,5.20
2018-01-10T13:11:33.384Z,5.20
2018-01-10T13:14:02.032Z,4.97
2018-01-10T13:16:30.173Z,4.83
2018-01-10T13:18:58.080Z,4.93
2018-01-10T13:21:26.014Z,5.20
2018-01-10T13:23:54.017Z,4.57
2018-01-10T13:26:22.055Z,4.60
2018-01-10T13:28:49.932Z,6.03
2018-01-10T13:31:17.979Z,5.40
2018-01-10T13:33:45.885Z,4.60
2018-01-10T13:36:13.840Z,5.37
2018-01-10T13:38:41.876Z,4.57
2018-01-10T13:41:10.689Z,5.10
2018-01-10T13:43:38.649Z,4.03
2018-01-10T13:59:12.801Z,4.40
2018-01-10T14:01:40.716Z,5.53
2018-01-10T14:04:09.341Z,4.00
2018-01-10T14:06:37.425Z,4.97
2018-01-10T14:09:05.428Z,4.63
2018-01-10T14:11:33.333Z,5.87
2018-01-10T14:14:01.368Z,5.10
2018-01-10T14:16:29.254Z,6.23
2018-01-10T14:18:57.916Z,5.73
2018-01-10T14:21:25.918Z,4.53
2018-01-10T14:23:54.564Z,5.30
2018-01-10T14:26:22.470Z,5.27
2018-01-10T14:28:51.241Z,4.70
2018-01-10T14:31:19.165Z,5.47
2018-01-10T14:33:48.006Z,4.90
2018-01-10T14:36:16.120Z,5.30
2018-01-10T14:38:44.044Z,5.27
2018-01-10T14:41:12.088Z,4.80
2018-01-10T14:43:40.128Z,4.70
2018-01-10T14:46:08.081Z,5.53
2018-01-10T14:48:36.749Z,4.87
2018-01-10T14:51:05.525Z,4.97
2018-01-10T14:53:33.420Z,4.83
2018-01-10T14:56:02.129Z,4.27
2018-01-10T14:58:30.142Z,4.20
2018-01-10T15:00:58.073Z,5.60
2018-01-10T15:03:25.988Z,5.27
2018-01-10T15:05:54.136Z,4.63
2018-01-10T15:08:22.073Z,5.70
2018-01-10T15:10:50.728Z,4.83
2018-01-10T15:13:18.788Z,4.27
2018-01-10T15:15:46.685Z,4.67
2018-01-10T15:18:15.314Z,4.80
2018-01-10T15:20:43.369Z,4.50
2018-01-10T15:23:11.288Z,5.23
2018-01-10T15:25:39.212Z,5.57
2018-01-10T15:28:07.243Z,5.07
2018-01-10T15:30:35.237Z,4.70
2018-01-10T15:33:03.909Z,4.77
2018-01-10T15:35:32.688Z,5.27
2018-01-10T15:38:00.577Z,5.10
2018-01-10T15:40:29.232Z,4.87
2018-01-10T15:42:57.394Z,4.63
2018-01-10T15:45:25.281Z,5.00
2018-01-10T15:47:53.199Z,4.80
2018-01-10T15:50:21.221Z,5.03
2018-01-10T15:52:49.347Z,4.30
2018-01-10T15:55:17.438Z,5.10
2018-01-10T15:57:45.605Z,4.70
2018-01-10T16:00:13.737Z,4.80
2018-01-10T16:02:42.886Z,5.00
2018-01-10T16:05:11.031Z,4.50
2018-01-10T16:07:39.081Z,4.33
2018-01-10T16:10:08.477Z,4.30
2018-01-10T16:12:36.815Z,5.50
2018-01-10T16:15:04.970Z,4.87
2018-01-10T16:17:32.892Z,5.17
2018-01-10T16:20:01.260Z,5.40
2018-01-10T16:22:29.516Z,5.80
2018-01-10T16:24:57.596Z,5.27
2018-01-10T16:27:25.843Z,5.80
2018-01-10T16:29:53.777Z,5.67
2018-01-10T16:32:22.508Z,4.97
2018-01-10T16:34:50.728Z,5.50
2018-01-10T16:37:18.701Z,5.40
2018-01-10T16:39:46.881Z,4.57
2018-01-10T16:42:15.342Z,5.20
2018-01-10T16:44:43.937Z,5.50
2018-01-10T16:47:11.902Z,5.00
2018-01-10T16:49:40.039Z,4.47
2018-01-10T16:52:08.091Z,4.43
2018-01-10T16:54:36.924Z,5.13
2018-01-10T16:57:05.157Z,4.13
2018-01-10T16:59:34.042Z,5.03
2018-01-10T17:02:02.731Z,4.80
2018-01-10T17:04:32.111Z,6.10
2018-01-10T17:07:00.258Z,5.37
2018-01-10T17:09:28.230Z,5.17
2018-01-10T17:11:56.425Z,5.20
2018-01-10T17:14:24.318Z,5.53
2018-01-10T17:16:53.283Z,5.40
2018-01-10T17:19:21.418Z,5.40
2018-01-10T17:21:49.605Z,5.30
2018-01-10T17:24:17.522Z,6.33
2018-01-10T17:26:45.673Z,5.13
2018-01-10T17:29:13.580Z,5.43
2018-01-10T17:31:42.231Z,4.73
2018-01-10T17:34:11.324Z,4.90
2018-01-10T17:36:39.792Z,4.83
2018-01-10T17:39:07.724Z,4.70
2018-01-10T17:41:36.687Z,4.63
2018-01-10T17:44:04.992Z,5.67
2018-01-10T17:46:33.318Z,6.17
2018-01-10T17:49:01.390Z,6.00
2018-01-10T17:51:29.575Z,5.17
2018-01-10T17:53:57.615Z,5.37
2018-01-10T17:56:25.769Z,5.30
2018-01-10T17:58:54.417Z,5.23
2018-01-10T18:01:22.364Z,5.37
2018-01-10T18:03:50.551Z,5.80
2018-01-10T18:06:18.689Z,4.53
2018-01-10T18:08:47.665Z,5.10
2018-01-10T18:11:15.985Z,5.57
2018-01-10T18:13:44.036Z,5.30
2018-01-10T18:16:12.159Z,6.60
2018-01-10T18:18:40.251Z,5.97
2018-01-10T18:21:09.482Z,5.90
2018-01-10T18:23:37.634Z,6.30
2018-01-10T18:26:06.525Z,5.67
2018-01-10T18:28:35.229Z,6.50
2018-01-10T18:31:03.238Z,6.10
2018-01-10T18:33:32.161Z,7.20
2018-01-10T18:36:00.998Z,11.63
2018-01-10T18:38:28.984Z,9.20
2018-01-10T18:40:57.132Z,8.53
2018-01-10T18:43:25.288Z,12.80
2018-01-10T18:45:54.078Z,8.30
2018-01-10T18:48:24.213Z,8.67
2018-01-10T18:56:51.496Z,7.00
2018-01-10T18:59:21.353Z,6.33
2018-01-10T19:01:49.383Z,7.40
2018-01-10T19:04:17.549Z,7.13
2018-01-10T19:06:45.572Z,8.37
2018-01-10T19:09:13.604Z,7.23
2018-01-10T19:11:41.900Z,7.63
2018-01-10T19:14:09.999Z,6.70
2018-01-10T19:16:38.111Z,8.57
2018-01-10T19:19:06.966Z,7.63
2018-01-10T19:21:34.936Z,7.23
2018-01-10T19:24:02.855Z,7.80
2018-01-10T19:26:31.036Z,9.83
2018-01-10T19:28:59.194Z,10.30
2018-01-10T19:31:27.168Z,10.17
2018-01-10T19:33:55.338Z,13.30
2018-01-10T19:36:24.194Z,12.90
2018-01-10T19:38:52.172Z,14.00
2018-01-10T19:41:21.074Z,12.53
2018-01-10T19:43:49.769Z,12.63
2018-01-10T19:46:18.825Z,17.10
2018-01-10T19:48:47.120Z,22.27
2018-01-10T19:51:15.137Z,27.27
2018-01-10T19:53:43.192Z,32.23
2018-01-10T19:56:12.127Z,21.97
2018-01-10T19:58:40.244Z,29.60
2018-01-10T20:01:08.241Z,16.20
2018-01-10T20:03:36.279Z,15.53
2018-01-10T20:06:04.298Z,13.10
2018-01-10T20:08:32.213Z,11.00
2018-01-10T20:11:00.269Z,10.67
2018-01-10T20:13:28.177Z,8.23
2018-01-10T20:15:56.953Z,9.17
2018-01-10T20:18:25.080Z,9.37
2018-01-10T20:20:53.068Z,10.23
2018-01-10T20:23:21.228Z,9.43
2018-01-10T20:25:49.348Z,8.30
2018-01-10T20:28:17.284Z,8.80
2018-01-10T20:30:45.311Z,8.27
2018-01-10T20:33:14.138Z,8.60
2018-01-10T20:35:42.160Z,10.50
2018-01-10T20:38:10.801Z,8.50
2018-01-10T20:40:38.894Z,8.80
2018-01-10T20:43:06.863Z,10.00
2018-01-10T20:45:34.870Z,9.63
2018-01-10T20:48:03.711Z,10.43
2018-01-10T20:50:32.082Z,9.97
2018-01-10T20:53:00.045Z,8.40
2018-01-10T20:55:28.234Z,9.40
2018-01-10T20:57:56.179Z,9.37
2018-01-10T21:00:24.178Z,10.63
2018-01-10T21:02:52.416Z,10.10
2018-01-10T21:05:20.475Z,8.77
2018-01-10T21:07:49.256Z,8.63
2018-01-10T21:10:18.169Z,9.30
2018-01-10T21:12:46.902Z,9.50
2018-01-10T21:15:14.955Z,7.80
2018-01-10T21:17:43.024Z,8.10
2018-01-10T21:20:11.261Z,8.90
2018-01-10T21:22:39.971Z,9.80
2018-01-10T21:25:08.105Z,7.10
2018-01-10T21:27:36.075Z,7.97
2018-01-10T21:30:04.154Z,9.20
2018-01-10T21:32:32.446Z,8.60
2018-01-10T21:35:00.470Z,7.83
2018-01-10T21:37:28.468Z,8.60
2018-01-10T21:39:56.721Z,7.67
2018-01-10T21:42:24.790Z,8.37
2018-01-10T21:44:52.748Z,8.10
2018-01-10T21:47:21.130Z,8.07
2018-01-10T21:49:49.257Z,8.20
2018-01-10T21:52:17.589Z,8.23
2018-01-10T21:54:45.745Z,7.33
2018-01-10T21:57:13.878Z,8.30
2018-01-10T21:59:42.166Z,9.70
2018-01-10T22:02:10.969Z,7.80
2018-01-10T22:04:39.837Z,8.30
2018-01-10T22:07:07.980Z,7.70
2018-01-10T22:09:36.056Z,7.83
2018-01-10T22:12:04.088Z,8.90
2018-01-10T22:14:32.158Z,8.00
2018-01-10T22:17:01.057Z,9.63
2018-01-10T22:19:29.001Z,8.13
2018-01-10T22:21:57.728Z,9.30
2018-01-10T22:24:25.845Z,9.63
2018-01-10T22:26:53.930Z,9.30
2018-01-10T22:29:21.980Z,9.10
2018-01-10T22:31:51.108Z,8.30
2018-01-10T22:34:19.944Z,8.90
2018-01-10T22:36:47.970Z,9.33
2018-01-10T22:39:16.840Z,9.67
2018-01-10T22:41:44.964Z,8.97
2018-01-10T22:44:13.174Z,9.90
2018-01-10T22:46:41.385Z,9.10
2018-01-10T22:49:09.349Z,9.53
2018-01-10T22:51:37.306Z,9.00
2018-01-10T22:54:05.512Z,9.10
2018-01-10T22:56:34.335Z,9.93
2018-01-10T22:59:02.303Z,9.80
2018-01-10T23:01:30.371Z,9.10
2018-01-10T23:03:58.396Z,9.40
2018-01-10T23:06:26.473Z,8.93
2018-01-10T23:08:55.401Z,9.47
2018-01-10T23:11:23.395Z,9.13
2018-01-10T23:13:51.458Z,10.03
2018-01-10T23:16:19.609Z,10.00
2018-01-10T23:18:48.387Z,9.53
2018-01-10T23:21:17.142Z,9.93
2018-01-10T23:23:45.253Z,10.50
2018-01-10T23:26:13.536Z,10.40
2018-01-10T23:28:42.286Z,9.97
2018-01-10T23:31:10.666Z,9.93
